sensor_id;sensor_type;location;lat;lon;timestamp;temperature;humidity
43946;DHT22;29599;51.196;4.428;2022-08-04T00:00:25;25.50;99.90
43946;DHT22;29599;51.196;4.428;2022-08-04T00:03:04;25.50;99.90
43946;DHT22;29599;51.196;4.428;2022-08-04T00:08:44;25.50;99.90
43946;DHT22;29599;51.196;4.428;2022-08-04T00:11:14;25.50;99.90
43946;DHT22;29599;51.196;4.428;2022-08-04T00:13:43;25.40;99.90
43946;DHT22;29599;51.196;4.428;2022-08-04T00:16:09;25.40;99.90
43946;DHT22;29599;51.196;4.428;2022-08-04T00:18:51;25.50;99.90
43946;DHT22;29599;51.196;4.428;2022-08-04T00:21:18;25.60;99.90
43946;DHT22;29599;51.196;4.428;2022-08-04T00:23:45;25.50;99.90
43946;DHT22;29599;51.196;4.428;2022-08-04T00:26:11;25.40;99.90
43946;DHT22;29599;51.196;4.428;2022-08-04T00:28:37;25.40;99.90
43946;DHT22;29599;51.196;4.428;2022-08-04T00:31:04;25.40;99.90
43946;DHT22;29599;51.196;4.428;2022-08-04T00:33:31;25.50;99.90
43946;DHT22;29599;51.196;4.428;2022-08-04T00:35:58;25.50;99.90
43946;DHT22;29599;51.196;4.428;2022-08-04T00:38:25;25.40;99.90
43946;DHT22;29599;51.196;4.428;2022-08-04T00:43:34;25.30;99.90
43946;DHT22;29599;51.196;4.428;2022-08-04T00:54:32;25.30;99.90
43946;DHT22;29599;51.196;4.428;2022-08-04T00:57:30;25.30;99.90
43946;DHT22;29599;51.196;4.428;2022-08-04T01:00:05;25.20;99.90
43946;DHT22;29599;51.196;4.428;2022-08-04T01:05:32;25.20;99.90
43946;DHT22;29599;51.196;4.428;2022-08-04T01:16:51;25.10;99.90
43946;DHT22;29599;51.196;4.428;2022-08-04T01:22:16;25.20;99.90
43946;DHT22;29599;51.196;4.428;2022-08-04T01:30:16;25.20;99.90
43946;DHT22;29599;51.196;4.428;2022-08-04T01:33:01;25.20;99.90
43946;DHT22;29599;51.196;4.428;2022-08-04T01:35:38;25.00;99.90
43946;DHT22;29599;51.196;4.428;2022-08-04T01:38:29;24.90;99.90
43946;DHT22;29599;51.196;4.428;2022-08-04T01:41:14;24.90;99.90
43946;DHT22;29599;51.196;4.428;2022-08-04T01:43:42;24.90;99.90
43946;DHT22;29599;51.196;4.428;2022-08-04T01:46:11;25.00;99.90
43946;DHT22;29599;51.196;4.428;2022-08-04T01:48:44;25.00;99.90
43946;DHT22;29599;51.196;4.428;2022-08-04T01:51:10;25.00;99.90
43946;DHT22;29599;51.196;4.428;2022-08-04T01:53:40;24.90;99.90
43946;DHT22;29599;51.196;4.428;2022-08-04T01:56:08;24.90;99.90
43946;DHT22;29599;51.196;4.428;2022-08-04T01:58:35;25.00;99.90
43946;DHT22;29599;51.196;4.428;2022-08-04T02:01:05;25.00;99.90
43946;DHT22;29599;51.196;4.428;2022-08-04T02:03:32;24.90;99.90
43946;DHT22;29599;51.196;4.428;2022-08-04T02:06:22;24.90;99.90
43946;DHT22;29599;51.196;4.428;2022-08-04T02:11:28;24.80;99.90
43946;DHT22;29599;51.196;4.428;2022-08-04T02:14:01;24.80;99.90
43946;DHT22;29599;51.196;4.428;2022-08-04T02:16:46;24.80;99.90
43946;DHT22;29599;51.196;4.428;2022-08-04T02:19:43;24.80;99.90
43946;DHT22;29599;51.196;4.428;2022-08-04T02:22:16;24.80;99.90
43946;DHT22;29599;51.196;4.428;2022-08-04T02:24:49;24.80;99.90
43946;DHT22;29599;51.196;4.428;2022-08-04T02:27:27;24.80;99.90
43946;DHT22;29599;51.196;4.428;2022-08-04T02:30:02;24.70;99.90
43946;DHT22;29599;51.196;4.428;2022-08-04T02:32:31;24.70;99.90
43946;DHT22;29599;51.196;4.428;2022-08-04T02:35:06;24.80;99.90
43946;DHT22;29599;51.196;4.428;2022-08-04T02:37:33;24.70;99.90
43946;DHT22;29599;51.196;4.428;2022-08-04T02:40:02;24.60;99.90
43946;DHT22;29599;51.196;4.428;2022-08-04T02:42:29;24.60;99.90
43946;DHT22;29599;51.196;4.428;2022-08-04T02:44:57;24.60;99.90
43946;DHT22;29599;51.196;4.428;2022-08-04T02:47:24;24.60;99.90
43946;DHT22;29599;51.196;4.428;2022-08-04T02:49:51;24.70;99.90
43946;DHT22;29599;51.196;4.428;2022-08-04T02:52:20;24.70;99.90
43946;DHT22;29599;51.196;4.428;2022-08-04T02:54:50;24.60;99.90
43946;DHT22;29599;51.196;4.428;2022-08-04T02:57:18;24.60;99.90
43946;DHT22;29599;51.196;4.428;2022-08-04T03:02:21;24.50;99.90
43946;DHT22;29599;51.196;4.428;2022-08-04T03:05:05;24.50;99.90
43946;DHT22;29599;51.196;4.428;2022-08-04T03:07:42;24.50;99.90
43946;DHT22;29599;51.196;4.428;2022-08-04T03:10:42;24.40;99.90
43946;DHT22;29599;51.196;4.428;2022-08-04T03:42:30;24.20;99.90
43946;DHT22;29599;51.196;4.428;2022-08-04T03:45:10;24.20;99.90
43946;DHT22;29599;51.196;4.428;2022-08-04T04:02:08;23.90;99.90
43946;DHT22;29599;51.196;4.428;2022-08-04T04:05:49;23.80;99.90
43946;DHT22;29599;51.196;4.428;2022-08-04T04:17:08;23.90;99.90
43946;DHT22;29599;51.196;4.428;2022-08-04T04:19:53;23.90;99.90
43946;DHT22;29599;51.196;4.428;2022-08-04T04:42:41;23.90;99.90
43946;DHT22;29599;51.196;4.428;2022-08-04T04:45:35;23.90;99.90
43946;DHT22;29599;51.196;4.428;2022-08-04T04:48:18;23.90;99.90
43946;DHT22;29599;51.196;4.428;2022-08-04T04:56:29;23.70;99.90
43946;DHT22;29599;51.196;4.428;2022-08-04T04:59:00;23.70;99.90
43946;DHT22;29599;51.196;4.428;2022-08-04T05:02:06;23.80;99.90
43946;DHT22;29599;51.196;4.428;2022-08-04T05:05:02;23.70;99.90
43946;DHT22;29599;51.196;4.428;2022-08-04T05:13:35;23.70;99.90
43946;DHT22;29599;51.196;4.428;2022-08-04T05:18:41;23.80;99.90
43946;DHT22;29599;51.196;4.428;2022-08-04T05:21:27;23.90;99.90
43946;DHT22;29599;51.196;4.428;2022-08-04T05:24:01;23.80;99.90
43946;DHT22;29599;51.196;4.428;2022-08-04T05:26:31;23.80;99.90
43946;DHT22;29599;51.196;4.428;2022-08-04T05:28:59;23.90;99.90
43946;DHT22;29599;51.196;4.428;2022-08-04T05:31:33;23.80;99.90
43946;DHT22;29599;51.196;4.428;2022-08-04T05:34:07;23.80;99.90
43946;DHT22;29599;51.196;4.428;2022-08-04T05:36:39;23.80;99.90
43946;DHT22;29599;51.196;4.428;2022-08-04T05:39:10;23.80;99.90
43946;DHT22;29599;51.196;4.428;2022-08-04T05:41:38;23.90;99.90
43946;DHT22;29599;51.196;4.428;2022-08-04T05:44:07;23.80;99.90
43946;DHT22;29599;51.196;4.428;2022-08-04T05:46:34;23.70;99.90
43946;DHT22;29599;51.196;4.428;2022-08-04T05:49:02;23.70;99.90
43946;DHT22;29599;51.196;4.428;2022-08-04T05:51:28;23.80;99.90
43946;DHT22;29599;51.196;4.428;2022-08-04T05:53:56;23.70;99.90
43946;DHT22;29599;51.196;4.428;2022-08-04T05:56:23;23.70;99.90
43946;DHT22;29599;51.196;4.428;2022-08-04T05:58:51;23.70;99.90
43946;DHT22;29599;51.196;4.428;2022-08-04T06:01:18;23.70;99.90
43946;DHT22;29599;51.196;4.428;2022-08-04T06:03:45;23.60;99.90
43946;DHT22;29599;51.196;4.428;2022-08-04T06:06:14;23.70;99.90
43946;DHT22;29599;51.196;4.428;2022-08-04T06:08:41;23.70;99.90
43946;DHT22;29599;51.196;4.428;2022-08-04T06:11:08;23.70;99.90
43946;DHT22;29599;51.196;4.428;2022-08-04T06:13:42;23.70;99.90
43946;DHT22;29599;51.196;4.428;2022-08-04T06:16:10;23.80;99.90
43946;DHT22;29599;51.196;4.428;2022-08-04T06:18:38;23.90;99.90
43946;DHT22;29599;51.196;4.428;2022-08-04T06:21:05;23.90;99.90
43946;DHT22;29599;51.196;4.428;2022-08-04T06:23:36;23.90;99.90
43946;DHT22;29599;51.196;4.428;2022-08-04T06:26:04;23.90;99.90
43946;DHT22;29599;51.196;4.428;2022-08-04T06:28:32;23.90;99.90
43946;DHT22;29599;51.196;4.428;2022-08-04T06:30:58;24.00;99.90
43946;DHT22;29599;51.196;4.428;2022-08-04T06:33:29;23.90;99.90
43946;DHT22;29599;51.196;4.428;2022-08-04T06:36:00;24.00;99.90
43946;DHT22;29599;51.196;4.428;2022-08-04T06:38:27;24.00;99.90
43946;DHT22;29599;51.196;4.428;2022-08-04T06:40:55;24.00;99.90
43946;DHT22;29599;51.196;4.428;2022-08-04T06:43:27;23.80;99.90
43946;DHT22;29599;51.196;4.428;2022-08-04T06:45:54;23.90;99.90
43946;DHT22;29599;51.196;4.428;2022-08-04T06:48:20;24.00;99.90
43946;DHT22;29599;51.196;4.428;2022-08-04T06:50:48;23.90;99.90
43946;DHT22;29599;51.196;4.428;2022-08-04T06:53:14;23.90;99.90
43946;DHT22;29599;51.196;4.428;2022-08-04T06:55:43;23.90;99.90
43946;DHT22;29599;51.196;4.428;2022-08-04T06:58:09;24.00;99.90
43946;DHT22;29599;51.196;4.428;2022-08-04T07:00:37;24.20;99.90
43946;DHT22;29599;51.196;4.428;2022-08-04T07:03:04;24.20;99.90
43946;DHT22;29599;51.196;4.428;2022-08-04T07:05:32;24.30;99.90
43946;DHT22;29599;51.196;4.428;2022-08-04T07:07:58;24.30;99.90
43946;DHT22;29599;51.196;4.428;2022-08-04T07:10:27;24.30;99.90
43946;DHT22;29599;51.196;4.428;2022-08-04T07:12:55;24.50;99.90
43946;DHT22;29599;51.196;4.428;2022-08-04T07:15:21;24.50;99.90
43946;DHT22;29599;51.196;4.428;2022-08-04T07:17:48;24.60;99.90
43946;DHT22;29599;51.196;4.428;2022-08-04T07:20:15;24.70;99.90
43946;DHT22;29599;51.196;4.428;2022-08-04T07:22:42;24.70;99.90
43946;DHT22;29599;51.196;4.428;2022-08-04T07:25:09;24.70;99.90
43946;DHT22;29599;51.196;4.428;2022-08-04T07:27:34;24.80;99.90
43946;DHT22;29599;51.196;4.428;2022-08-04T07:30:02;24.80;99.90
43946;DHT22;29599;51.196;4.428;2022-08-04T07:32:28;24.80;99.90
43946;DHT22;29599;51.196;4.428;2022-08-04T07:34:54;24.80;99.90
43946;DHT22;29599;51.196;4.428;2022-08-04T07:37:20;24.80;99.90
43946;DHT22;29599;51.196;4.428;2022-08-04T07:39:46;24.90;99.90
43946;DHT22;29599;51.196;4.428;2022-08-04T07:42:12;24.90;99.90
43946;DHT22;29599;51.196;4.428;2022-08-04T07:44:38;24.80;99.90
43946;DHT22;29599;51.196;4.428;2022-08-04T07:47:05;24.70;99.90
43946;DHT22;29599;51.196;4.428;2022-08-04T07:49:32;24.70;99.90
43946;DHT22;29599;51.196;4.428;2022-08-04T07:51:58;24.70;99.90
43946;DHT22;29599;51.196;4.428;2022-08-04T07:54:24;24.80;99.90
43946;DHT22;29599;51.196;4.428;2022-08-04T07:56:51;24.80;99.90
43946;DHT22;29599;51.196;4.428;2022-08-04T07:59:18;24.70;99.90
43946;DHT22;29599;51.196;4.428;2022-08-04T08:01:44;24.80;99.90
43946;DHT22;29599;51.196;4.428;2022-08-04T08:04:11;24.80;99.90
43946;DHT22;29599;51.196;4.428;2022-08-04T08:06:37;24.80;99.90
43946;DHT22;29599;51.196;4.428;2022-08-04T08:09:13;24.80;99.90
43946;DHT22;29599;51.196;4.428;2022-08-04T08:11:43;24.70;99.90
43946;DHT22;29599;51.196;4.428;2022-08-04T08:14:09;24.80;99.90
43946;DHT22;29599;51.196;4.428;2022-08-04T08:16:35;24.70;99.90
43946;DHT22;29599;51.196;4.428;2022-08-04T08:19:01;24.80;99.90
43946;DHT22;29599;51.196;4.428;2022-08-04T08:21:27;24.70;99.90
43946;DHT22;29599;51.196;4.428;2022-08-04T08:23:54;24.60;99.90
43946;DHT22;29599;51.196;4.428;2022-08-04T08:26:20;24.50;99.90
43946;DHT22;29599;51.196;4.428;2022-08-04T08:28:45;24.50;99.90
43946;DHT22;29599;51.196;4.428;2022-08-04T08:31:11;24.50;99.90
43946;DHT22;29599;51.196;4.428;2022-08-04T08:33:37;24.50;99.90
43946;DHT22;29599;51.196;4.428;2022-08-04T08:36:12;24.40;99.90
43946;DHT22;29599;51.196;4.428;2022-08-04T08:38:49;24.40;99.90
43946;DHT22;29599;51.196;4.428;2022-08-04T08:47:06;24.20;99.90
43946;DHT22;29599;51.196;4.428;2022-08-04T08:50:02;24.20;99.90
43946;DHT22;29599;51.196;4.428;2022-08-04T08:55:25;24.10;99.90
43946;DHT22;29599;51.196;4.428;2022-08-04T09:03:42;23.80;99.90
43946;DHT22;29599;51.196;4.428;2022-08-04T09:06:37;23.90;99.90
43946;DHT22;29599;51.196;4.428;2022-08-04T09:11:57;23.90;99.90
43946;DHT22;29599;51.196;4.428;2022-08-04T09:14:38;23.90;99.90
43946;DHT22;29599;51.196;4.428;2022-08-04T09:17:10;23.80;99.90
43946;DHT22;29599;51.196;4.428;2022-08-04T09:19:47;23.70;99.90
43946;DHT22;29599;51.196;4.428;2022-08-04T09:22:27;23.50;99.90
43946;DHT22;29599;51.196;4.428;2022-08-04T09:25:07;23.50;99.90
43946;DHT22;29599;51.196;4.428;2022-08-04T09:27:51;23.50;99.90
43946;DHT22;29599;51.196;4.428;2022-08-04T09:30:22;23.60;99.90
43946;DHT22;29599;51.196;4.428;2022-08-04T09:33:09;23.50;99.90
43946;DHT22;29599;51.196;4.428;2022-08-04T09:41:13;23.40;99.90
43946;DHT22;29599;51.196;4.428;2022-08-04T09:44:15;23.40;99.90
43946;DHT22;29599;51.196;4.428;2022-08-04T09:46:52;23.40;99.90
43946;DHT22;29599;51.196;4.428;2022-08-04T09:49:41;23.50;99.90
43946;DHT22;29599;51.196;4.428;2022-08-04T09:52:26;23.40;99.90
43946;DHT22;29599;51.196;4.428;2022-08-04T09:58:16;23.30;99.90
43946;DHT22;29599;51.196;4.428;2022-08-04T10:00:47;23.30;99.90
43946;DHT22;29599;51.196;4.428;2022-08-04T10:03:15;23.50;99.90
43946;DHT22;29599;51.196;4.428;2022-08-04T10:08:37;23.40;99.90
43946;DHT22;29599;51.196;4.428;2022-08-04T10:11:10;23.50;99.90
43946;DHT22;29599;51.196;4.428;2022-08-04T10:22:03;23.60;99.90
43946;DHT22;29599;51.196;4.428;2022-08-04T10:27:23;23.60;99.90
43946;DHT22;29599;51.196;4.428;2022-08-04T10:29:56;23.60;99.90
43946;DHT22;29599;51.196;4.428;2022-08-04T10:32:31;23.70;99.90
43946;DHT22;29599;51.196;4.428;2022-08-04T10:35:10;23.80;99.90
43946;DHT22;29599;51.196;4.428;2022-08-04T10:40:42;24.00;99.90
43946;DHT22;29599;51.196;4.428;2022-08-04T10:46:38;24.30;99.90
43946;DHT22;29599;51.196;4.428;2022-08-04T10:49:09;24.60;99.90
43946;DHT22;29599;51.196;4.428;2022-08-04T10:51:45;24.80;99.90
43946;DHT22;29599;51.196;4.428;2022-08-04T10:54:48;24.80;99.90
43946;DHT22;29599;51.196;4.428;2022-08-04T11:00:03;24.90;99.90
43946;DHT22;29599;51.196;4.428;2022-08-04T11:05:32;24.80;99.90
43946;DHT22;29599;51.196;4.428;2022-08-04T11:08:04;24.70;99.90
43946;DHT22;29599;51.196;4.428;2022-08-04T11:10:40;24.60;99.90
43946;DHT22;29599;51.196;4.428;2022-08-04T11:13:10;24.60;99.90
43946;DHT22;29599;51.196;4.428;2022-08-04T11:15:51;24.70;99.90
43946;DHT22;29599;51.196;4.428;2022-08-04T11:18:56;24.60;99.90
43946;DHT22;29599;51.196;4.428;2022-08-04T11:21:29;24.60;99.90
43946;DHT22;29599;51.196;4.428;2022-08-04T11:26:51;24.80;99.90
43946;DHT22;29599;51.196;4.428;2022-08-04T11:29:31;24.90;99.90
43946;DHT22;29599;51.196;4.428;2022-08-04T11:31:59;25.10;99.90
43946;DHT22;29599;51.196;4.428;2022-08-04T11:34:27;25.20;99.90
43946;DHT22;29599;51.196;4.428;2022-08-04T11:37:04;25.30;99.90
43946;DHT22;29599;51.196;4.428;2022-08-04T11:39:45;25.30;99.90
43946;DHT22;29599;51.196;4.428;2022-08-04T11:42:27;25.50;99.90
43946;DHT22;29599;51.196;4.428;2022-08-04T11:45:10;25.60;99.90
43946;DHT22;29599;51.196;4.428;2022-08-04T11:50:36;25.50;99.90
43946;DHT22;29599;51.196;4.428;2022-08-04T11:53:06;25.60;99.90
43946;DHT22;29599;51.196;4.428;2022-08-04T11:55:33;25.60;99.90
43946;DHT22;29599;51.196;4.428;2022-08-04T11:58:00;25.70;99.90
43946;DHT22;29599;51.196;4.428;2022-08-04T12:00:29;25.80;99.90
43946;DHT22;29599;51.196;4.428;2022-08-04T12:06:12;26.10;99.90
43946;DHT22;29599;51.196;4.428;2022-08-04T12:09:06;26.10;99.90
43946;DHT22;29599;51.196;4.428;2022-08-04T12:14:25;26.10;99.90
43946;DHT22;29599;51.196;4.428;2022-08-04T12:17:03;26.00;99.90
43946;DHT22;29599;51.196;4.428;2022-08-04T12:19:40;26.00;99.90
43946;DHT22;29599;51.196;4.428;2022-08-04T12:22:18;26.00;99.90
43946;DHT22;29599;51.196;4.428;2022-08-04T12:25:00;26.10;99.90
43946;DHT22;29599;51.196;4.428;2022-08-04T12:27:32;26.30;99.90
43946;DHT22;29599;51.196;4.428;2022-08-04T12:29:58;26.40;99.90
43946;DHT22;29599;51.196;4.428;2022-08-04T12:32:37;26.50;99.90
43946;DHT22;29599;51.196;4.428;2022-08-04T12:35:18;26.70;99.90
43946;DHT22;29599;51.196;4.428;2022-08-04T12:37:57;26.50;99.90
43946;DHT22;29599;51.196;4.428;2022-08-04T12:43:22;26.70;99.90
43946;DHT22;29599;51.196;4.428;2022-08-04T12:45:57;26.70;99.90
43946;DHT22;29599;51.196;4.428;2022-08-04T12:48:26;26.60;99.90
43946;DHT22;29599;51.196;4.428;2022-08-04T12:50:54;26.70;99.90
43946;DHT22;29599;51.196;4.428;2022-08-04T12:53:22;26.70;99.90
43946;DHT22;29599;51.196;4.428;2022-08-04T12:55:50;26.70;99.90
43946;DHT22;29599;51.196;4.428;2022-08-04T12:58:27;26.70;99.90
43946;DHT22;29599;51.196;4.428;2022-08-04T13:00:59;26.80;99.90
43946;DHT22;29599;51.196;4.428;2022-08-04T13:03:40;26.70;99.90
43946;DHT22;29599;51.196;4.428;2022-08-04T13:06:08;26.70;99.90
43946;DHT22;29599;51.196;4.428;2022-08-04T13:08:37;26.70;99.90
43946;DHT22;29599;51.196;4.428;2022-08-04T13:11:05;26.80;99.90
43946;DHT22;29599;51.196;4.428;2022-08-04T13:13:35;26.70;99.90
43946;DHT22;29599;51.196;4.428;2022-08-04T13:16:07;26.80;99.90
43946;DHT22;29599;51.196;4.428;2022-08-04T13:18:45;26.80;99.90
43946;DHT22;29599;51.196;4.428;2022-08-04T13:21:15;26.80;99.90
43946;DHT22;29599;51.196;4.428;2022-08-04T13:23:42;26.80;99.90
43946;DHT22;29599;51.196;4.428;2022-08-04T13:26:12;26.90;99.90
43946;DHT22;29599;51.196;4.428;2022-08-04T13:28:41;26.80;99.90
43946;DHT22;29599;51.196;4.428;2022-08-04T13:31:10;26.90;99.90
43946;DHT22;29599;51.196;4.428;2022-08-04T13:33:41;26.90;99.90
43946;DHT22;29599;51.196;4.428;2022-08-04T13:36:08;26.90;99.90
43946;DHT22;29599;51.196;4.428;2022-08-04T13:38:43;26.90;99.90
43946;DHT22;29599;51.196;4.428;2022-08-04T13:41:10;26.90;99.90
43946;DHT22;29599;51.196;4.428;2022-08-04T13:43:44;26.80;99.90
43946;DHT22;29599;51.196;4.428;2022-08-04T13:46:17;26.80;99.90
43946;DHT22;29599;51.196;4.428;2022-08-04T13:48:45;26.80;99.90
43946;DHT22;29599;51.196;4.428;2022-08-04T13:51:17;26.80;99.90
43946;DHT22;29599;51.196;4.428;2022-08-04T13:53:43;26.90;99.90
43946;DHT22;29599;51.196;4.428;2022-08-04T13:56:09;26.90;99.90
43946;DHT22;29599;51.196;4.428;2022-08-04T13:58:40;26.90;99.90
43946;DHT22;29599;51.196;4.428;2022-08-04T14:01:18;26.90;99.90
43946;DHT22;29599;51.196;4.428;2022-08-04T14:06:35;26.90;99.90
43946;DHT22;29599;51.196;4.428;2022-08-04T14:09:16;26.90;99.90
43946;DHT22;29599;51.196;4.428;2022-08-04T14:11:52;26.80;99.90
43946;DHT22;29599;51.196;4.428;2022-08-04T14:14:22;26.80;99.90
43946;DHT22;29599;51.196;4.428;2022-08-04T14:17:06;26.70;99.90
43946;DHT22;29599;51.196;4.428;2022-08-04T14:19:50;26.80;99.90
43946;DHT22;29599;51.196;4.428;2022-08-04T14:25:10;26.70;99.90
43946;DHT22;29599;51.196;4.428;2022-08-04T14:30:33;26.80;99.90
43946;DHT22;29599;51.196;4.428;2022-08-04T14:33:07;26.80;99.90
43946;DHT22;29599;51.196;4.428;2022-08-04T14:35:34;26.90;99.90
43946;DHT22;29599;51.196;4.428;2022-08-04T14:38:07;27.00;99.90
43946;DHT22;29599;51.196;4.428;2022-08-04T14:40:36;26.90;99.90
43946;DHT22;29599;51.196;4.428;2022-08-04T14:43:02;27.00;99.90
43946;DHT22;29599;51.196;4.428;2022-08-04T14:45:35;26.90;99.90
43946;DHT22;29599;51.196;4.428;2022-08-04T14:48:05;26.80;99.90
43946;DHT22;29599;51.196;4.428;2022-08-04T14:50:46;26.80;99.90
43946;DHT22;29599;51.196;4.428;2022-08-04T14:53:20;26.60;99.90
43946;DHT22;29599;51.196;4.428;2022-08-04T14:58:21;26.50;99.90
43946;DHT22;29599;51.196;4.428;2022-08-04T15:00:47;26.50;99.90
43946;DHT22;29599;51.196;4.428;2022-08-04T15:03:14;26.40;99.90
43946;DHT22;29599;51.196;4.428;2022-08-04T15:05:41;26.40;99.90
43946;DHT22;29599;51.196;4.428;2022-08-04T15:08:07;26.40;99.90
43946;DHT22;29599;51.196;4.428;2022-08-04T15:10:34;26.30;99.90
43946;DHT22;29599;51.196;4.428;2022-08-04T15:13:02;26.20;99.90
43946;DHT22;29599;51.196;4.428;2022-08-04T15:15:28;26.30;99.90
43946;DHT22;29599;51.196;4.428;2022-08-04T15:17:54;26.20;99.90
43946;DHT22;29599;51.196;4.428;2022-08-04T15:20:21;26.20;99.90
43946;DHT22;29599;51.196;4.428;2022-08-04T15:22:46;26.20;99.90
43946;DHT22;29599;51.196;4.428;2022-08-04T15:25:13;26.20;99.90
43946;DHT22;29599;51.196;4.428;2022-08-04T15:27:40;26.30;99.90
43946;DHT22;29599;51.196;4.428;2022-08-04T15:30:10;26.20;99.90
43946;DHT22;29599;51.196;4.428;2022-08-04T15:32:51;26.30;99.90
43946;DHT22;29599;51.196;4.428;2022-08-04T15:35:20;26.30;99.90
43946;DHT22;29599;51.196;4.428;2022-08-04T15:40:29;26.20;99.90
43946;DHT22;29599;51.196;4.428;2022-08-04T15:45:56;26.20;99.90
43946;DHT22;29599;51.196;4.428;2022-08-04T15:48:26;26.10;99.90
43946;DHT22;29599;51.196;4.428;2022-08-04T15:58:54;26.10;99.90
43946;DHT22;29599;51.196;4.428;2022-08-04T16:01:20;26.00;99.90
43946;DHT22;29599;51.196;4.428;2022-08-04T16:03:48;25.90;99.90
43946;DHT22;29599;51.196;4.428;2022-08-04T16:19:06;25.80;99.90
43946;DHT22;29599;51.196;4.428;2022-08-04T16:21:34;25.80;99.90
43946;DHT22;29599;51.196;4.428;2022-08-04T16:24:13;25.90;99.90
43946;DHT22;29599;51.196;4.428;2022-08-04T16:36:59;25.70;99.90
43946;DHT22;29599;51.196;4.428;2022-08-04T16:39:26;25.60;99.90
43946;DHT22;29599;51.196;4.428;2022-08-04T16:41:52;25.60;99.90
43946;DHT22;29599;51.196;4.428;2022-08-04T16:44:36;25.50;99.90
43946;DHT22;29599;51.196;4.428;2022-08-04T16:47:06;25.50;99.90
43946;DHT22;29599;51.196;4.428;2022-08-04T16:49:32;25.40;99.90
43946;DHT22;29599;51.196;4.428;2022-08-04T16:52:03;25.50;99.90
43946;DHT22;29599;51.196;4.428;2022-08-04T16:54:30;25.40;99.90
43946;DHT22;29599;51.196;4.428;2022-08-04T16:56:59;25.40;99.90
43946;DHT22;29599;51.196;4.428;2022-08-04T16:59:26;25.30;99.90
43946;DHT22;29599;51.196;4.428;2022-08-04T17:01:53;25.30;99.90
43946;DHT22;29599;51.196;4.428;2022-08-04T17:04:34;25.30;99.90
43946;DHT22;29599;51.196;4.428;2022-08-04T17:07:03;25.30;99.90
43946;DHT22;29599;51.196;4.428;2022-08-04T17:09:30;25.40;99.90
43946;DHT22;29599;51.196;4.428;2022-08-04T17:11:57;25.40;99.90
43946;DHT22;29599;51.196;4.428;2022-08-04T17:14:25;25.40;99.90
43946;DHT22;29599;51.196;4.428;2022-08-04T17:16:53;25.40;99.90
43946;DHT22;29599;51.196;4.428;2022-08-04T17:19:22;25.30;99.90
43946;DHT22;29599;51.196;4.428;2022-08-04T17:21:52;25.30;99.90
43946;DHT22;29599;51.196;4.428;2022-08-04T17:24:20;25.20;99.90
43946;DHT22;29599;51.196;4.428;2022-08-04T17:26:47;25.10;99.90
43946;DHT22;29599;51.196;4.428;2022-08-04T17:29:16;25.10;99.90
43946;DHT22;29599;51.196;4.428;2022-08-04T17:31:43;25.20;99.90
43946;DHT22;29599;51.196;4.428;2022-08-04T17:34:11;25.20;99.90
43946;DHT22;29599;51.196;4.428;2022-08-04T17:36:37;25.10;99.90
43946;DHT22;29599;51.196;4.428;2022-08-04T17:39:26;25.10;99.90
43946;DHT22;29599;51.196;4.428;2022-08-04T17:41:59;25.30;99.90
43946;DHT22;29599;51.196;4.428;2022-08-04T17:44:37;25.20;99.90
43946;DHT22;29599;51.196;4.428;2022-08-04T17:47:07;25.30;99.90
43946;DHT22;29599;51.196;4.428;2022-08-04T17:49:41;25.30;99.90
43946;DHT22;29599;51.196;4.428;2022-08-04T17:52:20;25.40;99.90
43946;DHT22;29599;51.196;4.428;2022-08-04T17:54:58;25.40;99.90
43946;DHT22;29599;51.196;4.428;2022-08-04T17:57:28;25.30;99.90
43946;DHT22;29599;51.196;4.428;2022-08-04T17:59:57;25.30;99.90
43946;DHT22;29599;51.196;4.428;2022-08-04T18:02:29;25.30;99.90
43946;DHT22;29599;51.196;4.428;2022-08-04T18:04:59;25.30;99.90
43946;DHT22;29599;51.196;4.428;2022-08-04T18:07:37;25.30;99.90
43946;DHT22;29599;51.196;4.428;2022-08-04T18:10:04;25.20;99.90
43946;DHT22;29599;51.196;4.428;2022-08-04T18:12:31;25.10;99.90
43946;DHT22;29599;51.196;4.428;2022-08-04T18:15:21;25.10;99.90
43946;DHT22;29599;51.196;4.428;2022-08-04T18:17:50;25.20;99.90
43946;DHT22;29599;51.196;4.428;2022-08-04T18:20:22;25.00;99.90
43946;DHT22;29599;51.196;4.428;2022-08-04T18:22:52;24.90;99.90
43946;DHT22;29599;51.196;4.428;2022-08-04T18:25:19;25.00;99.90
43946;DHT22;29599;51.196;4.428;2022-08-04T18:27:54;24.90;99.90
43946;DHT22;29599;51.196;4.428;2022-08-04T18:30:23;24.80;99.90
43946;DHT22;29599;51.196;4.428;2022-08-04T18:32:50;24.80;99.90
43946;DHT22;29599;51.196;4.428;2022-08-04T18:35:20;24.80;99.90
43946;DHT22;29599;51.196;4.428;2022-08-04T18:37:46;24.70;99.90
43946;DHT22;29599;51.196;4.428;2022-08-04T18:40:16;24.80;99.90
43946;DHT22;29599;51.196;4.428;2022-08-04T18:42:42;24.80;99.90
43946;DHT22;29599;51.196;4.428;2022-08-04T18:45:08;24.60;99.90
43946;DHT22;29599;51.196;4.428;2022-08-04T18:47:37;24.60;99.90
43946;DHT22;29599;51.196;4.428;2022-08-04T18:50:09;24.60;99.90
43946;DHT22;29599;51.196;4.428;2022-08-04T18:52:35;24.50;99.90
43946;DHT22;29599;51.196;4.428;2022-08-04T18:55:05;24.60;99.90
43946;DHT22;29599;51.196;4.428;2022-08-04T18:57:33;24.50;99.90
43946;DHT22;29599;51.196;4.428;2022-08-04T19:00:00;24.50;99.90
43946;DHT22;29599;51.196;4.428;2022-08-04T19:02:25;24.50;99.90
43946;DHT22;29599;51.196;4.428;2022-08-04T19:04:54;24.50;99.90
43946;DHT22;29599;51.196;4.428;2022-08-04T19:07:20;24.50;99.90
43946;DHT22;29599;51.196;4.428;2022-08-04T19:09:47;24.50;99.90
43946;DHT22;29599;51.196;4.428;2022-08-04T19:12:12;24.40;99.90
43946;DHT22;29599;51.196;4.428;2022-08-04T19:14:38;24.40;99.90
43946;DHT22;29599;51.196;4.428;2022-08-04T19:17:09;24.20;99.90
43946;DHT22;29599;51.196;4.428;2022-08-04T19:19:36;24.00;99.90
43946;DHT22;29599;51.196;4.428;2022-08-04T19:22:06;24.00;99.90
43946;DHT22;29599;51.196;4.428;2022-08-04T19:24:35;23.90;99.90
43946;DHT22;29599;51.196;4.428;2022-08-04T19:27:04;23.90;99.90
43946;DHT22;29599;51.196;4.428;2022-08-04T19:29:32;23.80;99.90
43946;DHT22;29599;51.196;4.428;2022-08-04T19:31:58;23.70;99.90
43946;DHT22;29599;51.196;4.428;2022-08-04T19:34:24;23.80;99.90
43946;DHT22;29599;51.196;4.428;2022-08-04T19:36:50;23.70;99.90
43946;DHT22;29599;51.196;4.428;2022-08-04T19:39:17;23.70;99.90
43946;DHT22;29599;51.196;4.428;2022-08-04T19:41:43;23.70;99.90
43946;DHT22;29599;51.196;4.428;2022-08-04T19:44:11;23.70;99.90
43946;DHT22;29599;51.196;4.428;2022-08-04T19:46:39;23.80;99.90
43946;DHT22;29599;51.196;4.428;2022-08-04T19:49:11;23.90;99.90
43946;DHT22;29599;51.196;4.428;2022-08-04T19:51:39;23.70;99.90
43946;DHT22;29599;51.196;4.428;2022-08-04T19:54:05;23.80;99.90
43946;DHT22;29599;51.196;4.428;2022-08-04T19:56:31;23.80;99.90
43946;DHT22;29599;51.196;4.428;2022-08-04T19:58:57;23.70;99.90